sensor_id;sensor_type;location;lat;lon;timestamp;pressure;altitude;pressure_sealevel;temperature;humidity
61571;BME280;47463;49.884;10.010;2022-10-16T00:00:01;101787;;;15;87
61571;BME280;47463;49.884;10.010;2022-10-16T00:05:01;101801;;;15;87
61571;BME280;47463;49.884;10.010;2022-10-16T00:10:01;101794;;;15;87
61571;BME280;47463;49.884;10.010;2022-10-16T00:15:01;101797;;;15;87
61571;BME280;47463;49.884;10.010;2022-10-16T00:20:01;101797;;;15;87
61571;BME280;47463;49.884;10.010;2022-10-16T00:25:01;101799;;;15;88
61571;BME280;47463;49.884;10.010;2022-10-16T00:30:01;101802;;;15;88
61571;BME280;47463;49.884;10.010;2022-10-16T00:35:01;101806;;;14.9;88
61571;BME280;47463;49.884;10.010;2022-10-16T00:40:01;101802;;;14.9;88
61571;BME280;47463;49.884;10.010;2022-10-16T00:45:01;101796;;;14.9;88
61571;BME280;47463;49.884;10.010;2022-10-16T00:50:02;101799;;;14.9;88
61571;BME280;47463;49.884;10.010;2022-10-16T00:55:01;101802;;;14.9;88
61571;BME280;47463;49.884;10.010;2022-10-16T01:00:01;101800;;;14.9;88
61571;BME280;47463;49.884;10.010;2022-10-16T01:05:01;101807;;;14.9;88
61571;BME280;47463;49.884;10.010;2022-10-16T01:10:04;101819;;;14.9;88
61571;BME280;47463;49.884;10.010;2022-10-16T01:15:02;101822;;;14.9;88
61571;BME280;47463;49.884;10.010;2022-10-16T01:20:03;101826;;;14.9;88
61571;BME280;47463;49.884;10.010;2022-10-16T01:25:01;101834;;;14.9;88
61571;BME280;47463;49.884;10.010;2022-10-16T01:30:02;101833;;;14.9;88
61571;BME280;47463;49.884;10.010;2022-10-16T01:35:02;101840;;;14.8;88
61571;BME280;47463;49.884;10.010;2022-10-16T01:40:01;101852;;;14.8;88
61571;BME280;47463;49.884;10.010;2022-10-16T01:45:01;101849;;;14.7;88
61571;BME280;47463;49.884;10.010;2022-10-16T01:50:01;101845;;;14.6;88
61571;BME280;47463;49.884;10.010;2022-10-16T01:55:01;101835;;;14.5;87
61571;BME280;47463;49.884;10.010;2022-10-16T02:00:02;101835;;;14.5;87
61571;BME280;47463;49.884;10.010;2022-10-16T02:05:02;101839;;;14.5;87
61571;BME280;47463;49.884;10.010;2022-10-16T02:10:01;101822;;;14.5;87
61571;BME280;47463;49.884;10.010;2022-10-16T02:15:01;101830;;;14.5;87
61571;BME280;47463;49.884;10.010;2022-10-16T02:20:01;101839;;;14.5;87
61571;BME280;47463;49.884;10.010;2022-10-16T02:25:01;101833;;;14.5;87
61571;BME280;47463;49.884;10.010;2022-10-16T02:30:03;101842;;;14.5;87
61571;BME280;47463;49.884;10.010;2022-10-16T02:35:01;101841;;;14.5;88
61571;BME280;47463;49.884;10.010;2022-10-16T02:40:01;101841;;;14.5;88
61571;BME280;47463;49.884;10.010;2022-10-16T02:45:01;101840;;;14.5;88
61571;BME280;47463;49.884;10.010;2022-10-16T02:50:01;101844;;;14.5;88
61571;BME280;47463;49.884;10.010;2022-10-16T02:55:01;101849;;;14.5;88
61571;BME280;47463;49.884;10.010;2022-10-16T03:00:01;101855;;;14.5;88
61571;BME280;47463;49.884;10.010;2022-10-16T03:05:01;101844;;;14.5;88
61571;BME280;47463;49.884;10.010;2022-10-16T03:10:01;101845;;;14.5;88
61571;BME280;47463;49.884;10.010;2022-10-16T03:15:01;101846;;;14.5;88
61571;BME280;47463;49.884;10.010;2022-10-16T03:20:01;101842;;;14.5;88
61571;BME280;47463;49.884;10.010;2022-10-16T03:25:01;101845;;;14.5;88
61571;BME280;47463;49.884;10.010;2022-10-16T03:30:01;101837;;;14.5;88
61571;BME280;47463;49.884;10.010;2022-10-16T03:35:01;101843;;;14.5;89
61571;BME280;47463;49.884;10.010;2022-10-16T03:40:01;101842;;;14.5;89
61571;BME280;47463;49.884;10.010;2022-10-16T03:45:01;101840;;;14.4;89
61571;BME280;47463;49.884;10.010;2022-10-16T03:50:01;101841;;;14.4;89
61571;BME280;47463;49.884;10.010;2022-10-16T03:55:01;101843;;;14.3;89
61571;BME280;47463;49.884;10.010;2022-10-16T04:00:01;101841;;;14.4;89
61571;BME280;47463;49.884;10.010;2022-10-16T04:05:01;101847;;;14.4;89
61571;BME280;47463;49.884;10.010;2022-10-16T04:10:01;101846;;;14.3;89
61571;BME280;47463;49.884;10.010;2022-10-16T04:15:01;101853;;;14.3;89
61571;BME280;47463;49.884;10.010;2022-10-16T04:20:01;101856;;;14.4;89
61571;BME280;47463;49.884;10.010;2022-10-16T04:25:01;101869;;;14.4;89
61571;BME280;47463;49.884;10.010;2022-10-16T04:30:01;101863;;;14.4;89
61571;BME280;47463;49.884;10.010;2022-10-16T04:35:01;101867;;;14.4;88
61571;BME280;47463;49.884;10.010;2022-10-16T04:40:01;101872;;;14.4;88
61571;BME280;47463;49.884;10.010;2022-10-16T04:45:01;101887;;;14.4;88
61571;BME280;47463;49.884;10.010;2022-10-16T04:50:01;101897;;;14.4;88
61571;BME280;47463;49.884;10.010;2022-10-16T04:55:01;101891;;;14.4;88
61571;BME280;47463;49.884;10.010;2022-10-16T05:00:01;101906;;;14.4;89
61571;BME280;47463;49.884;10.010;2022-10-16T05:05:01;101903;;;14.5;88
61571;BME280;47463;49.884;10.010;2022-10-16T05:10:01;101883;;;14.5;88
61571;BME280;47463;49.884;10.010;2022-10-16T05:15:01;101876;;;14.6;88
61571;BME280;47463;49.884;10.010;2022-10-16T05:20:01;101892;;;14.5;88
61571;BME280;47463;49.884;10.010;2022-10-16T05:25:01;101899;;;14.5;88
61571;BME280;47463;49.884;10.010;2022-10-16T05:30:01;101895;;;14.5;88
61571;BME280;47463;49.884;10.010;2022-10-16T05:35:01;101888;;;14.5;88
61571;BME280;47463;49.884;10.010;2022-10-16T05:40:01;101885;;;14.5;88
61571;BME280;47463;49.884;10.010;2022-10-16T05:45:01;101884;;;14.5;88
61571;BME280;47463;49.884;10.010;2022-10-16T05:50:01;101880;;;14.5;88
61571;BME280;47463;49.884;10.010;2022-10-16T05:55:01;101904;;;14.5;88
61571;BME280;47463;49.884;10.010;2022-10-16T06:00:01;101906;;;14.5;88
61571;BME280;47463;49.884;10.010;2022-10-16T06:05:01;101899;;;14.5;88
61571;BME280;47463;49.884;10.010;2022-10-16T06:10:01;101914;;;14.5;88
61571;BME280;47463;49.884;10.010;2022-10-16T06:15:01;101933;;;14.6;88
61571;BME280;47463;49.884;10.010;2022-10-16T06:20:01;101928;;;14.7;88
61571;BME280;47463;49.884;10.010;2022-10-16T06:25:01;101937;;;14.8;87
61571;BME280;47463;49.884;10.010;2022-10-16T06:30:01;101947;;;14.8;87
61571;BME280;47463;49.884;10.010;2022-10-16T06:35:01;101953;;;14.8;87
61571;BME280;47463;49.884;10.010;2022-10-16T06:40:01;101976;;;14.8;87
61571;BME280;47463;49.884;10.010;2022-10-16T06:45:01;101978;;;14.8;87
61571;BME280;47463;49.884;10.010;2022-10-16T06:50:01;101985;;;14.8;87
61571;BME280;47463;49.884;10.010;2022-10-16T06:55:01;101993;;;14.8;87
61571;BME280;47463;49.884;10.010;2022-10-16T07:00:01;101997;;;14.9;87
61571;BME280;47463;49.884;10.010;2022-10-16T07:05:01;102012;;;15;87
61571;BME280;47463;49.884;10.010;2022-10-16T07:10:01;102022;;;15;87
61571;BME280;47463;49.884;10.010;2022-10-16T07:15:01;102027;;;15.1;87
61571;BME280;47463;49.884;10.010;2022-10-16T07:20:01;102029;;;15.1;87
61571;BME280;47463;49.884;10.010;2022-10-16T07:25:01;102024;;;15.1;87
61571;BME280;47463;49.884;10.010;2022-10-16T07:30:01;101931;;;15.1;87
61571;BME280;47463;49.884;10.010;2022-10-16T07:35:01;101936;;;15.1;87
61571;BME280;47463;49.884;10.010;2022-10-16T07:40:01;101930;;;15.2;87
61571;BME280;47463;49.884;10.010;2022-10-16T07:45:01;101926;;;15.2;87
61571;BME280;47463;49.884;10.010;2022-10-16T07:50:01;101926;;;15.1;87
61571;BME280;47463;49.884;10.010;2022-10-16T07:55:01;101926;;;15.2;87
61571;BME280;47463;49.884;10.010;2022-10-16T08:00:01;101926;;;15.3;87
61571;BME280;47463;49.884;10.010;2022-10-16T08:05:01;101926;;;15.3;87
61571;BME280;47463;49.884;10.010;2022-10-16T08:10:01;101926;;;15.4;87
61571;BME280;47463;49.884;10.010;2022-10-16T08:15:01;101926;;;15.5;86
61571;BME280;47463;49.884;10.010;2022-10-16T08:20:01;101926;;;15.5;86
61571;BME280;47463;49.884;10.010;2022-10-16T08:25:01;101926;;;15.6;86
61571;BME280;47463;49.884;10.010;2022-10-16T08:30:01;101926;;;15.7;86
61571;BME280;47463;49.884;10.010;2022-10-16T08:35:01;101926;;;15.7;86
61571;BME280;47463;49.884;10.010;2022-10-16T08:40:01;101926;;;15.7;86
61571;BME280;47463;49.884;10.010;2022-10-16T08:45:07;101926;;;15.9;85
61571;BME280;47463;49.884;10.010;2022-10-16T08:50:02;101980;;;15.9;85
61571;BME280;47463;49.884;10.010;2022-10-16T08:55:01;101990;;;16.1;85
61571;BME280;47463;49.884;10.010;2022-10-16T09:00:08;101980;;;16.2;84
61571;BME280;47463;49.884;10.010;2022-10-16T09:05:02;101980;;;16.3;84
61571;BME280;47463;49.884;10.010;2022-10-16T09:10:04;101990;;;16.4;84
61571;BME280;47463;49.884;10.010;2022-10-16T09:15:02;102000;;;16.4;84
61571;BME280;47463;49.884;10.010;2022-10-16T09:20:04;102000;;;16.4;84
61571;BME280;47463;49.884;10.010;2022-10-16T09:25:01;102010;;;16.4;84
61571;BME280;47463;49.884;10.010;2022-10-16T09:30:01;102020;;;16.6;84
61571;BME280;47463;49.884;10.010;2022-10-16T09:35:01;102010;;;16.5;84
61571;BME280;47463;49.884;10.010;2022-10-16T09:40:01;102030;;;16.5;84
61571;BME280;47463;49.884;10.010;2022-10-16T09:45:01;102020;;;16.6;84
61571;BME280;47463;49.884;10.010;2022-10-16T09:50:02;102020;;;16.6;84
61571;BME280;47463;49.884;10.010;2022-10-16T09:55:02;102030;;;16.7;84
61571;BME280;47463;49.884;10.010;2022-10-16T10:00:04;102040;;;16.7;83
61571;BME280;47463;49.884;10.010;2022-10-16T10:05:01;102050;;;16.6;84
61571;BME280;47463;49.884;10.010;2022-10-16T10:10:01;102070;;;16.5;84
61571;BME280;47463;49.884;10.010;2022-10-16T10:15:03;102060;;;16.5;84
61571;BME280;47463;49.884;10.010;2022-10-16T10:20:13;102080;;;16.5;85
61571;BME280;47463;49.884;10.010;2022-10-16T10:25:10;102080;;;16.5;85
61571;BME280;47463;49.884;10.010;2022-10-16T10:30:01;102080;;;16.5;85
61571;BME280;47463;49.884;10.010;2022-10-16T10:35:05;102090;;;16.5;85
61571;BME280;47463;49.884;10.010;2022-10-16T10:40:03;102100;;;16.5;85
61571;BME280;47463;49.884;10.010;2022-10-16T10:45:17;102110;;;16.5;85
61571;BME280;47463;49.884;10.010;2022-10-16T10:50:03;102100;;;16.4;85
61571;BME280;47463;49.884;10.010;2022-10-16T10:55:02;102100;;;16.4;86
61571;BME280;47463;49.884;10.010;2022-10-16T11:00:02;102100;;;16.4;86
61571;BME280;47463;49.884;10.010;2022-10-16T11:05:07;102100;;;16.5;86
61571;BME280;47463;49.884;10.010;2022-10-16T11:10:02;102090;;;16.6;85
61571;BME280;47463;49.884;10.010;2022-10-16T11:15:02;102090;;;16.9;85
61571;BME280;47463;49.884;10.010;2022-10-16T11:20:02;102080;;;16.9;85
61571;BME280;47463;49.884;10.010;2022-10-16T11:25:02;102090;;;17.4;84
61571;BME280;47463;49.884;10.010;2022-10-16T11:30:02;102080;;;17.7;83
61571;BME280;47463;49.884;10.010;2022-10-16T11:35:02;102080;;;17.9;82
61571;BME280;47463;49.884;10.010;2022-10-16T11:40:03;102080;;;18;81
61571;BME280;47463;49.884;10.010;2022-10-16T11:45:03;102080;;;18.1;80
61571;BME280;47463;49.884;10.010;2022-10-16T11:50:01;102080;;;18.3;81
61571;BME280;47463;49.884;10.010;2022-10-16T11:55:02;102070;;;18.5;80
61571;BME280;47463;49.884;10.010;2022-10-16T12:00:02;102070;;;18.8;80
61571;BME280;47463;49.884;10.010;2022-10-16T12:05:04;102070;;;18.8;79
61571;BME280;47463;49.884;10.010;2022-10-16T12:10:09;102080;;;18.7;79
61571;BME280;47463;49.884;10.010;2022-10-16T12:15:02;102080;;;18.8;79
61571;BME280;47463;49.884;10.010;2022-10-16T12:20:12;102070;;;19.1;79
61571;BME280;47463;49.884;10.010;2022-10-16T12:25:01;102070;;;19.5;78
61571;BME280;47463;49.884;10.010;2022-10-16T12:30:01;102050;;;19.8;77
61571;BME280;47463;49.884;10.010;2022-10-16T12:35:01;102040;;;20.2;75
61571;BME280;47463;49.884;10.010;2022-10-16T12:40:10;102030;;;20.2;75
61571;BME280;47463;49.884;10.010;2022-10-16T12:45:01;102060;;;20.2;74
61571;BME280;47463;49.884;10.010;2022-10-16T12:50:01;102050;;;20.1;74
61571;BME280;47463;49.884;10.010;2022-10-16T12:55:01;102050;;;20.2;74
61571;BME280;47463;49.884;10.010;2022-10-16T13:00:03;102050;;;20.4;75
61571;BME280;47463;49.884;10.010;2022-10-16T13:05:03;102060;;;20.5;75
61571;BME280;47463;49.884;10.010;2022-10-16T13:10:03;102060;;;20.5;74
61571;BME280;47463;49.884;10.010;2022-10-16T13:15:06;102050;;;20.9;74
61571;BME280;47463;49.884;10.010;2022-10-16T13:20:02;102060;;;20.7;74
61571;BME280;47463;49.884;10.010;2022-10-16T13:25:03;102060;;;20.6;73
61571;BME280;47463;49.884;10.010;2022-10-16T13:30:02;102060;;;20.8;74
61571;BME280;47463;49.884;10.010;2022-10-16T13:35:01;102060;;;21.1;73
61571;BME280;47463;49.884;10.010;2022-10-16T13:40:04;102060;;;20.9;74
61571;BME280;47463;49.884;10.010;2022-10-16T13:45:01;102070;;;20.6;73
61571;BME280;47463;49.884;10.010;2022-10-16T13:50:02;102070;;;20.2;74
61571;BME280;47463;49.884;10.010;2022-10-16T13:55:01;102070;;;20;75
61571;BME280;47463;49.884;10.010;2022-10-16T14:00:01;102080;;;19.9;75
61571;BME280;47463;49.884;10.010;2022-10-16T14:05:01;102070;;;19.9;76
61571;BME280;47463;49.884;10.010;2022-10-16T14:10:02;102080;;;20;76
61571;BME280;47463;49.884;10.010;2022-10-16T14:15:01;102080;;;20;77
61571;BME280;47463;49.884;10.010;2022-10-16T14:20:02;102080;;;20;77
61571;BME280;47463;49.884;10.010;2022-10-16T14:25:01;102080;;;20;77
61571;BME280;47463;49.884;10.010;2022-10-16T14:30:05;102090;;;20;78
61571;BME280;47463;49.884;10.010;2022-10-16T14:35:01;102080;;;20;78
61571;BME280;47463;49.884;10.010;2022-10-16T14:40:01;102090;;;20;78
61571;BME280;47463;49.884;10.010;2022-10-16T14:45:01;102080;;;19.9;77
61571;BME280;47463;49.884;10.010;2022-10-16T14:50:01;102080;;;19.9;77
61571;BME280;47463;49.884;10.010;2022-10-16T14:55:01;102080;;;19.8;77
61571;BME280;47463;49.884;10.010;2022-10-16T15:00:01;102080;;;19.8;77
61571;BME280;47463;49.884;10.010;2022-10-16T15:05:02;102080;;;19.7;78
61571;BME280;47463;49.884;10.010;2022-10-16T15:10:01;102090;;;19.6;78
61571;BME280;47463;49.884;10.010;2022-10-16T15:15:01;102090;;;19.6;79
61571;BME280;47463;49.884;10.010;2022-10-16T15:20:01;102100;;;19.3;81
61571;BME280;47463;49.884;10.010;2022-10-16T15:25:01;102110;;;19.2;82
61571;BME280;47463;49.884;10.010;2022-10-16T15:30:01;102100;;;18.9;82
61571;BME280;47463;49.884;10.010;2022-10-16T15:35:01;102090;;;18.7;83
61571;BME280;47463;49.884;10.010;2022-10-16T15:40:01;102090;;;18.7;83
61571;BME280;47463;49.884;10.010;2022-10-16T15:45:01;102080;;;18.4;84
61571;BME280;47463;49.884;10.010;2022-10-16T15:50:01;102080;;;18.3;84
61571;BME280;47463;49.884;10.010;2022-10-16T15:55:01;102100;;;18.2;84
61571;BME280;47463;49.884;10.010;2022-10-16T16:00:01;102090;;;18.2;84
61571;BME280;47463;49.884;10.010;2022-10-16T16:05:01;102090;;;18.2;84
61571;BME280;47463;49.884;10.010;2022-10-16T16:10:01;102100;;;18;85
61571;BME280;47463;49.884;10.010;2022-10-16T16:15:01;102090;;;17.7;85
61571;BME280;47463;49.884;10.010;2022-10-16T16:20:01;102090;;;17.6;86
61571;BME280;47463;49.884;10.010;2022-10-16T16:25:01;102080;;;17.5;86
61571;BME280;47463;49.884;10.010;2022-10-16T16:30:01;102090;;;17.5;86
61571;BME280;47463;49.884;10.010;2022-10-16T16:35:01;102100;;;17.5;86
61571;BME280;47463;49.884;10.010;2022-10-16T16:40:01;102100;;;17.4;86
61571;BME280;47463;49.884;10.010;2022-10-16T16:45:01;102110;;;17.4;86
61571;BME280;47463;49.884;10.010;2022-10-16T16:50:01;102120;;;17.3;86
61571;BME280;47463;49.884;10.010;2022-10-16T16:55:01;102120;;;17.2;86
61571;BME280;47463;49.884;10.010;2022-10-16T17:00:01;102120;;;17.1;86
61571;BME280;47463;49.884;10.010;2022-10-16T17:05:01;102140;;;17.1;87
61571;BME280;47463;49.884;10.010;2022-10-16T17:10:01;102150;;;17;87
61571;BME280;47463;49.884;10.010;2022-10-16T17:15:01;102160;;;16.8;87
61571;BME280;47463;49.884;10.010;2022-10-16T17:20:01;102180;;;16.7;87
61571;BME280;47463;49.884;10.010;2022-10-16T17:25:01;102180;;;16.5;87
61571;BME280;47463;49.884;10.010;2022-10-16T17:30:01;102180;;;16.4;87
61571;BME280;47463;49.884;10.010;2022-10-16T17:35:01;102200;;;16.3;87
61571;BME280;47463;49.884;10.010;2022-10-16T17:40:01;102200;;;16.1;87
61571;BME280;47463;49.884;10.010;2022-10-16T17:45:01;102210;;;16;87
61571;BME280;47463;49.884;10.010;2022-10-16T17:50:01;102190;;;16;88
61571;BME280;47463;49.884;10.010;2022-10-16T17:55:01;102190;;;15.8;88
61571;BME280;47463;49.884;10.010;2022-10-16T18:00:01;102190;;;15.8;88
61571;BME280;47463;49.884;10.010;2022-10-16T18:05:01;102200;;;15.8;88
61571;BME280;47463;49.884;10.010;2022-10-16T18:10:01;102210;;;15.5;88
61571;BME280;47463;49.884;10.010;2022-10-16T18:15:01;102210;;;15.4;88
61571;BME280;47463;49.884;10.010;2022-10-16T18:20:01;102220;;;15.2;88
61571;BME280;47463;49.884;10.010;2022-10-16T18:25:01;102220;;;15.2;88
61571;BME280;47463;49.884;10.010;2022-10-16T18:30:01;102210;;;15.1;88
61571;BME280;47463;49.884;10.010;2022-10-16T18:35:01;102220;;;15;88
61571;BME280;47463;49.884;10.010;2022-10-16T18:40:01;102230;;;14.8;88
61571;BME280;47463;49.884;10.010;2022-10-16T18:45:01;102230;;;14.7;88
61571;BME280;47463;49.884;10.010;2022-10-16T18:50:01;102230;;;14.7;88
61571;BME280;47463;49.884;10.010;2022-10-16T18:55:01;102240;;;14.6;88
61571;BME280;47463;49.884;10.010;2022-10-16T19:00:01;102240;;;14.4;88
61571;BME280;47463;49.884;10.010;2022-10-16T19:05:01;102230;;;14.5;89
61571;BME280;47463;49.884;10.010;2022-10-16T19:10:01;102230;;;14.4;89
61571;BME280;47463;49.884;10.010;2022-10-16T19:15:01;102240;;;14.3;89
61571;BME280;47463;49.884;10.010;2022-10-16T19:20:01;102250;;;14.4;89
61571;BME280;47463;49.884;10.010;2022-10-16T19:25:01;102250;;;14.3;89
61571;BME280;47463;49.884;10.010;2022-10-16T19:30:01;102250;;;14.2;89
61571;BME280;47463;49.884;10.010;2022-10-16T19:35:01;102250;;;14.3;89
61571;BME280;47463;49.884;10.010;2022-10-16T19:40:01;102260;;;14.3;89
61571;BME280;47463;49.884;10.010;2022-10-16T19:45:01;102270;;;14.2;89
61571;BME280;47463;49.884;10.010;2022-10-16T19:50:01;102260;;;14.3;89
61571;BME280;47463;49.884;10.010;2022-10-16T19:55:01;102270;;;14.3;89
61571;BME280;47463;49.884;10.010;2022-10-16T20:00:01;102280;;;14.2;89
61571;BME280;47463;49.884;10.010;2022-10-16T20:05:01;102280;;;14.2;89
61571;BME280;47463;49.884;10.010;2022-10-16T20:10:01;102280;;;14.2;89
61571;BME280;47463;49.884;10.010;2022-10-16T20:15:01;102290;;;14.1;89
61571;BME280;47463;49.884;10.010;2022-10-16T20:20:01;102290;;;14.2;89
61571;BME280;47463;49.884;10.010;2022-10-16T20:25:01;102290;;;14.1;89
61571;BME280;47463;49.884;10.010;2022-10-16T20:30:01;102300;;;14.1;89
61571;BME280;47463;49.884;10.010;2022-10-16T20:35:01;102310;;;14;89
61571;BME280;47463;49.884;10.010;2022-10-16T20:40:01;102310;;;14.1;89
61571;BME280;47463;49.884;10.010;2022-10-16T20:45:01;102310;;;14.1;89
61571;BME280;47463;49.884;10.010;2022-10-16T20:50:01;102310;;;14.1;89
61571;BME280;47463;49.884;10.010;2022-10-16T20:55:01;102310;;;13.9;89
61571;BME280;47463;49.884;10.010;2022-10-16T21:00:01;102320;;;13.9;89
61571;BME280;47463;49.884;10.010;2022-10-16T21:05:01;102310;;;14;89
61571;BME280;47463;49.884;10.010;2022-10-16T21:10:01;102320;;;14;90
61571;BME280;47463;49.884;10.010;2022-10-16T21:15:01;102320;;;14;90
61571;BME280;47463;49.884;10.010;2022-10-16T21:20:01;102330;;;14;89
61571;BME280;47463;49.884;10.010;2022-10-16T21:25:01;102330;;;14;89
61571;BME280;47463;49.884;10.010;2022-10-16T21:30:01;102340;;;13.9;89
61571;BME280;47463;49.884;10.010;2022-10-16T21:35:01;102340;;;13.7;89
61571;BME280;47463;49.884;10.010;2022-10-16T21:40:01;102340;;;13.6;90
61571;BME280;47463;49.884;10.010;2022-10-16T21:45:01;102350;;;13.6;90
61571;BME280;47463;49.884;10.010;2022-10-16T21:50:01;102360;;;13.6;90
61571;BME280;47463;49.884;10.010;2022-10-16T21:55:01;102370;;;13.8;90
61571;BME280;47463;49.884;10.010;2022-10-16T22:00:01;102360;;;13.8;90
61571;BME280;47463;49.884;10.010;2022-10-16T22:05:01;102360;;;13.6;90
61571;BME280;47463;49.884;10.010;2022-10-16T22:10:01;102390;;;13.6;90
61571;BME280;47463;49.884;10.010;2022-10-16T22:15:01;102380;;;13.5;90
61571;BME280;47463;49.884;10.010;2022-10-16T22:20:01;102380;;;13.5;90
61571;BME280;47463;49.884;10.010;2022-10-16T22:25:01;102380;;;13.4;90
61571;BME280;47463;49.884;10.010;2022-10-16T22:30:01;102390;;;13.5;90
61571;BME280;47463;49.884;10.010;2022-10-16T22:35:01;102390;;;13.4;90
61571;BME280;47463;49.884;10.010;2022-10-16T22:40:01;102380;;;13.3;90
61571;BME280;47463;49.884;10.010;2022-10-16T22:45:01;102380;;;13.1;90
61571;BME280;47463;49.884;10.010;2022-10-16T22:50:01;102370;;;13.2;90
61571;BME280;47463;49.884;10.010;2022-10-16T22:55:01;102380;;;13.1;90
61571;BME280;47463;49.884;10.010;2022-10-16T23:00:01;102370;;;13.1;90
61571;BME280;47463;49.884;10.010;2022-10-16T23:05:01;102370;;;13;90
61571;BME280;47463;49.884;10.010;2022-10-16T23:10:01;102390;;;13;90
61571;BME280;47463;49.884;10.010;2022-10-16T23:15:01;102390;;;13;90
61571;BME280;47463;49.884;10.010;2022-10-16T23:20:01;102380;;;12.9;90
61571;BME280;47463;49.884;10.010;2022-10-16T23:25:01;102390;;;13;90
61571;BME280;47463;49.884;10.010;2022-10-16T23:30:01;102390;;;12.9;90
61571;BME280;47463;49.884;10.010;2022-10-16T23:35:01;102390;;;12.9;90
61571;BME280;47463;49.884;10.010;2022-10-16T23:40:01;102390;;;12.8;90
61571;BME280;47463;49.884;10.010;2022-10-16T23:45:01;102390;;;12.7;90
61571;BME280;47463;49.884;10.010;2022-10-16T23:50:01;102409.99999999999;;;12.7;90
61571;BME280;47463;49.884;10.010;2022-10-16T23:55:01;102409.99999999999;;;12.8;90
